sensor_id;sensor_type;location;lat;lon;timestamp;P1;durP1;ratioP1;P2;durP2;ratioP2
51987;SDS011;38003;52.012;4.346;2023-08-21T00:00:14;7.63;;;2.17;;
51987;SDS011;38003;52.012;4.346;2023-08-21T00:02:43;4.72;;;2.10;;
51987;SDS011;38003;52.012;4.346;2023-08-21T00:05:11;6.68;;;2.20;;
51987;SDS011;38003;52.012;4.346;2023-08-21T00:07:41;5.22;;;2.17;;
51987;SDS011;38003;52.012;4.346;2023-08-21T00:10:09;5.65;;;2.13;;
51987;SDS011;38003;52.012;4.346;2023-08-21T00:12:40;3.63;;;1.90;;
51987;SDS011;38003;52.012;4.346;2023-08-21T00:15:09;4.25;;;1.80;;
51987;SDS011;38003;52.012;4.346;2023-08-21T00:17:40;6.28;;;2.05;;
51987;SDS011;38003;52.012;4.346;2023-08-21T00:20:09;4.85;;;1.90;;
51987;SDS011;38003;52.012;4.346;2023-08-21T00:22:38;4.13;;;1.65;;
51987;SDS011;38003;52.012;4.346;2023-08-21T00:25:08;3.97;;;1.90;;
51987;SDS011;38003;52.012;4.346;2023-08-21T00:27:36;4.03;;;1.90;;
51987;SDS011;38003;52.012;4.346;2023-08-21T00:30:04;5.55;;;2.00;;
51987;SDS011;38003;52.012;4.346;2023-08-21T00:32:33;5.85;;;1.92;;
51987;SDS011;38003;52.012;4.346;2023-08-21T00:35:02;4.20;;;1.90;;
51987;SDS011;38003;52.012;4.346;2023-08-21T00:37:31;6.57;;;2.15;;
51987;SDS011;38003;52.012;4.346;2023-08-21T00:39:59;5.47;;;2.10;;
51987;SDS011;38003;52.012;4.346;2023-08-21T00:42:28;4.47;;;2.15;;
51987;SDS011;38003;52.012;4.346;2023-08-21T00:44:57;5.20;;;2.00;;
51987;SDS011;38003;52.012;4.346;2023-08-21T00:47:25;4.45;;;1.85;;
51987;SDS011;38003;52.012;4.346;2023-08-21T00:49:53;6.40;;;2.17;;
51987;SDS011;38003;52.012;4.346;2023-08-21T00:52:22;5.57;;;2.50;;
51987;SDS011;38003;52.012;4.346;2023-08-21T00:54:50;7.22;;;2.40;;
51987;SDS011;38003;52.012;4.346;2023-08-21T00:57:18;4.38;;;1.88;;
51987;SDS011;38003;52.012;4.346;2023-08-21T00:59:49;3.80;;;2.20;;
51987;SDS011;38003;52.012;4.346;2023-08-21T01:02:18;6.28;;;2.38;;
51987;SDS011;38003;52.012;4.346;2023-08-21T01:04:46;4.13;;;1.98;;
51987;SDS011;38003;52.012;4.346;2023-08-21T01:07:14;4.85;;;2.15;;
51987;SDS011;38003;52.012;4.346;2023-08-21T01:09:43;5.50;;;2.10;;
51987;SDS011;38003;52.012;4.346;2023-08-21T01:12:15;6.95;;;2.55;;
51987;SDS011;38003;52.012;4.346;2023-08-21T01:14:50;5.28;;;2.28;;
51987;SDS011;38003;52.012;4.346;2023-08-21T01:17:22;4.35;;;2.03;;
51987;SDS011;38003;52.012;4.346;2023-08-21T01:19:51;6.28;;;2.20;;
51987;SDS011;38003;52.012;4.346;2023-08-21T01:22:19;4.90;;;2.25;;
51987;SDS011;38003;52.012;4.346;2023-08-21T01:24:49;4.50;;;2.17;;
51987;SDS011;38003;52.012;4.346;2023-08-21T01:27:17;6.05;;;2.50;;
51987;SDS011;38003;52.012;4.346;2023-08-21T01:29:47;6.72;;;2.22;;
51987;SDS011;38003;52.012;4.346;2023-08-21T01:32:17;5.85;;;2.25;;
51987;SDS011;38003;52.012;4.346;2023-08-21T01:34:48;5.25;;;2.05;;
51987;SDS011;38003;52.012;4.346;2023-08-21T01:37:18;6.07;;;2.33;;
51987;SDS011;38003;52.012;4.346;2023-08-21T01:39:46;7.05;;;2.47;;
51987;SDS011;38003;52.012;4.346;2023-08-21T01:42:16;7.13;;;2.35;;
51987;SDS011;38003;52.012;4.346;2023-08-21T01:44:44;4.53;;;2.28;;
51987;SDS011;38003;52.012;4.346;2023-08-21T01:47:13;6.72;;;2.80;;
51987;SDS011;38003;52.012;4.346;2023-08-21T01:49:41;7.70;;;2.50;;
51987;SDS011;38003;52.012;4.346;2023-08-21T01:52:09;5.72;;;2.38;;
51987;SDS011;38003;52.012;4.346;2023-08-21T01:54:38;6.25;;;2.50;;
51987;SDS011;38003;52.012;4.346;2023-08-21T01:57:06;8.15;;;2.80;;
51987;SDS011;38003;52.012;4.346;2023-08-21T01:59:35;6.68;;;2.75;;
51987;SDS011;38003;52.012;4.346;2023-08-21T02:02:04;5.72;;;2.42;;
51987;SDS011;38003;52.012;4.346;2023-08-21T02:04:32;9.13;;;2.70;;
51987;SDS011;38003;52.012;4.346;2023-08-21T02:07:00;6.03;;;2.67;;
51987;SDS011;38003;52.012;4.346;2023-08-21T02:09:28;4.70;;;2.65;;
51987;SDS011;38003;52.012;4.346;2023-08-21T02:11:57;9.88;;;2.70;;
51987;SDS011;38003;52.012;4.346;2023-08-21T02:14:25;5.50;;;2.33;;
51987;SDS011;38003;52.012;4.346;2023-08-21T02:16:54;5.90;;;2.53;;
51987;SDS011;38003;52.012;4.346;2023-08-21T02:19:23;3.72;;;2.45;;
51987;SDS011;38003;52.012;4.346;2023-08-21T02:21:51;8.02;;;2.63;;
51987;SDS011;38003;52.012;4.346;2023-08-21T02:24:19;9.15;;;2.70;;
51987;SDS011;38003;52.012;4.346;2023-08-21T02:26:47;6.93;;;2.35;;
51987;SDS011;38003;52.012;4.346;2023-08-21T02:29:16;10.88;;;3.05;;
51987;SDS011;38003;52.012;4.346;2023-08-21T02:31:44;7.65;;;2.70;;
51987;SDS011;38003;52.012;4.346;2023-08-21T02:34:13;5.85;;;3.05;;
51987;SDS011;38003;52.012;4.346;2023-08-21T02:36:42;7.70;;;2.78;;
51987;SDS011;38003;52.012;4.346;2023-08-21T02:39:10;5.68;;;2.55;;
51987;SDS011;38003;52.012;4.346;2023-08-21T02:41:38;6.60;;;2.50;;
51987;SDS011;38003;52.012;4.346;2023-08-21T02:44:06;6.70;;;2.47;;
51987;SDS011;38003;52.012;4.346;2023-08-21T02:46:35;4.50;;;2.50;;
51987;SDS011;38003;52.012;4.346;2023-08-21T02:49:03;8.00;;;3.10;;
51987;SDS011;38003;52.012;4.346;2023-08-21T02:51:33;4.97;;;2.47;;
51987;SDS011;38003;52.012;4.346;2023-08-21T02:54:01;5.32;;;2.70;;
51987;SDS011;38003;52.012;4.346;2023-08-21T02:56:29;6.75;;;3.00;;
51987;SDS011;38003;52.012;4.346;2023-08-21T02:58:58;7.05;;;3.22;;
51987;SDS011;38003;52.012;4.346;2023-08-21T03:01:26;6.50;;;3.00;;
51987;SDS011;38003;52.012;4.346;2023-08-21T03:03:54;7.90;;;3.28;;
51987;SDS011;38003;52.012;4.346;2023-08-21T03:06:23;5.63;;;3.00;;
51987;SDS011;38003;52.012;4.346;2023-08-21T03:08:52;6.72;;;2.95;;
51987;SDS011;38003;52.012;4.346;2023-08-21T03:11:20;4.20;;;2.67;;
51987;SDS011;38003;52.012;4.346;2023-08-21T03:13:49;4.78;;;2.70;;
51987;SDS011;38003;52.012;4.346;2023-08-21T03:16:17;2.90;;;2.42;;
51987;SDS011;38003;52.012;4.346;2023-08-21T03:18:55;7.60;;;2.90;;
51987;SDS011;38003;52.012;4.346;2023-08-21T03:21:23;5.28;;;2.67;;
51987;SDS011;38003;52.012;4.346;2023-08-21T03:23:53;5.35;;;2.70;;
51987;SDS011;38003;52.012;4.346;2023-08-21T03:26:22;6.72;;;2.90;;
51987;SDS011;38003;52.012;4.346;2023-08-21T03:28:50;5.13;;;2.78;;
51987;SDS011;38003;52.012;4.346;2023-08-21T03:31:18;5.32;;;2.83;;
51987;SDS011;38003;52.012;4.346;2023-08-21T03:33:47;8.43;;;2.78;;
51987;SDS011;38003;52.012;4.346;2023-08-21T03:36:15;6.03;;;2.83;;
51987;SDS011;38003;52.012;4.346;2023-08-21T03:38:43;7.07;;;2.63;;
51987;SDS011;38003;52.012;4.346;2023-08-21T03:41:13;5.70;;;3.42;;
51987;SDS011;38003;52.012;4.346;2023-08-21T03:43:41;5.78;;;2.90;;
51987;SDS011;38003;52.012;4.346;2023-08-21T03:46:09;6.90;;;2.38;;
51987;SDS011;38003;52.012;4.346;2023-08-21T03:48:38;4.93;;;2.33;;
51987;SDS011;38003;52.012;4.346;2023-08-21T03:51:06;7.72;;;2.95;;
51987;SDS011;38003;52.012;4.346;2023-08-21T03:53:34;5.93;;;2.45;;
51987;SDS011;38003;52.012;4.346;2023-08-21T03:56:03;5.97;;;2.55;;
51987;SDS011;38003;52.012;4.346;2023-08-21T03:58:32;7.50;;;2.50;;
51987;SDS011;38003;52.012;4.346;2023-08-21T04:01:01;6.68;;;2.47;;
51987;SDS011;38003;52.012;4.346;2023-08-21T04:03:29;7.43;;;2.78;;
51987;SDS011;38003;52.012;4.346;2023-08-21T04:05:57;4.28;;;2.15;;
51987;SDS011;38003;52.012;4.346;2023-08-21T04:08:25;7.68;;;2.55;;
51987;SDS011;38003;52.012;4.346;2023-08-21T04:10:54;5.38;;;2.63;;
51987;SDS011;38003;52.012;4.346;2023-08-21T04:13:25;5.00;;;2.10;;
51987;SDS011;38003;52.012;4.346;2023-08-21T04:15:55;5.75;;;2.30;;
51987;SDS011;38003;52.012;4.346;2023-08-21T04:18:23;5.82;;;2.30;;
51987;SDS011;38003;52.012;4.346;2023-08-21T04:21:06;7.65;;;2.47;;
51987;SDS011;38003;52.012;4.346;2023-08-21T04:23:35;5.13;;;2.58;;
51987;SDS011;38003;52.012;4.346;2023-08-21T04:26:03;7.10;;;2.38;;
51987;SDS011;38003;52.012;4.346;2023-08-21T04:28:32;4.90;;;2.53;;
51987;SDS011;38003;52.012;4.346;2023-08-21T04:31:03;5.68;;;2.47;;
51987;SDS011;38003;52.012;4.346;2023-08-21T04:33:32;6.28;;;2.30;;
51987;SDS011;38003;52.012;4.346;2023-08-21T04:36:00;5.18;;;2.22;;
51987;SDS011;38003;52.012;4.346;2023-08-21T04:38:28;9.40;;;2.85;;
51987;SDS011;38003;52.012;4.346;2023-08-21T04:41:01;5.47;;;2.60;;
51987;SDS011;38003;52.012;4.346;2023-08-21T04:43:33;7.93;;;2.33;;
51987;SDS011;38003;52.012;4.346;2023-08-21T04:46:03;6.85;;;2.22;;
51987;SDS011;38003;52.012;4.346;2023-08-21T04:48:32;5.35;;;2.28;;
51987;SDS011;38003;52.012;4.346;2023-08-21T04:51:00;4.60;;;2.40;;
51987;SDS011;38003;52.012;4.346;2023-08-21T04:53:28;7.13;;;2.58;;
51987;SDS011;38003;52.012;4.346;2023-08-21T04:55:58;4.55;;;2.20;;
51987;SDS011;38003;52.012;4.346;2023-08-21T04:58:26;6.55;;;2.08;;
51987;SDS011;38003;52.012;4.346;2023-08-21T05:00:55;6.50;;;2.55;;
51987;SDS011;38003;52.012;4.346;2023-08-21T05:03:24;4.30;;;2.00;;
51987;SDS011;38003;52.012;4.346;2023-08-21T05:05:53;4.88;;;2.10;;
51987;SDS011;38003;52.012;4.346;2023-08-21T05:08:21;4.88;;;2.40;;
51987;SDS011;38003;52.012;4.346;2023-08-21T05:10:53;4.40;;;2.20;;
51987;SDS011;38003;52.012;4.346;2023-08-21T05:13:22;5.78;;;2.53;;
51987;SDS011;38003;52.012;4.346;2023-08-21T05:15:53;5.47;;;2.40;;
51987;SDS011;38003;52.012;4.346;2023-08-21T05:18:21;4.97;;;2.63;;
51987;SDS011;38003;52.012;4.346;2023-08-21T05:20:53;6.20;;;2.60;;
51987;SDS011;38003;52.012;4.346;2023-08-21T05:23:21;5.85;;;2.65;;
51987;SDS011;38003;52.012;4.346;2023-08-21T05:25:50;6.72;;;2.65;;
51987;SDS011;38003;52.012;4.346;2023-08-21T05:28:18;7.00;;;2.42;;
51987;SDS011;38003;52.012;4.346;2023-08-21T05:30:46;6.88;;;2.42;;
51987;SDS011;38003;52.012;4.346;2023-08-21T05:33:15;4.97;;;2.38;;
51987;SDS011;38003;52.012;4.346;2023-08-21T05:35:43;9.40;;;2.80;;
51987;SDS011;38003;52.012;4.346;2023-08-21T05:38:13;8.10;;;2.67;;
51987;SDS011;38003;52.012;4.346;2023-08-21T05:40:41;6.68;;;2.80;;
51987;SDS011;38003;52.012;4.346;2023-08-21T05:43:10;6.97;;;2.75;;
51987;SDS011;38003;52.012;4.346;2023-08-21T05:45:38;7.05;;;2.72;;
51987;SDS011;38003;52.012;4.346;2023-08-21T05:48:06;9.00;;;2.65;;
51987;SDS011;38003;52.012;4.346;2023-08-21T05:50:35;7.55;;;3.13;;
51987;SDS011;38003;52.012;4.346;2023-08-21T05:53:03;9.07;;;3.13;;
51987;SDS011;38003;52.012;4.346;2023-08-21T05:55:33;13.18;;;3.35;;
51987;SDS011;38003;52.012;4.346;2023-08-21T05:58:01;9.00;;;3.25;;
51987;SDS011;38003;52.012;4.346;2023-08-21T06:00:29;8.68;;;3.28;;
51987;SDS011;38003;52.012;4.346;2023-08-21T06:02:58;8.10;;;3.28;;
51987;SDS011;38003;52.012;4.346;2023-08-21T06:05:26;11.13;;;3.97;;
51987;SDS011;38003;52.012;4.346;2023-08-21T06:07:54;12.88;;;3.58;;
51987;SDS011;38003;52.012;4.346;2023-08-21T06:10:23;8.52;;;3.70;;
51987;SDS011;38003;52.012;4.346;2023-08-21T06:12:52;20.50;;;4.03;;
51987;SDS011;38003;52.012;4.346;2023-08-21T06:15:21;12.07;;;3.85;;
51987;SDS011;38003;52.012;4.346;2023-08-21T06:17:49;10.55;;;4.00;;
51987;SDS011;38003;52.012;4.346;2023-08-21T06:20:18;11.27;;;3.92;;
51987;SDS011;38003;52.012;4.346;2023-08-21T06:22:46;9.98;;;3.65;;
51987;SDS011;38003;52.012;4.346;2023-08-21T06:25:14;10.27;;;4.40;;
51987;SDS011;38003;52.012;4.346;2023-08-21T06:27:45;9.98;;;3.60;;
51987;SDS011;38003;52.012;4.346;2023-08-21T06:30:26;13.52;;;3.70;;
51987;SDS011;38003;52.012;4.346;2023-08-21T06:32:54;12.35;;;4.20;;
51987;SDS011;38003;52.012;4.346;2023-08-21T06:35:22;10.13;;;4.30;;
51987;SDS011;38003;52.012;4.346;2023-08-21T06:37:50;9.65;;;4.03;;
51987;SDS011;38003;52.012;4.346;2023-08-21T06:40:20;10.90;;;4.20;;
51987;SDS011;38003;52.012;4.346;2023-08-21T06:42:49;13.25;;;4.70;;
51987;SDS011;38003;52.012;4.346;2023-08-21T06:45:19;12.77;;;4.47;;
51987;SDS011;38003;52.012;4.346;2023-08-21T06:47:48;12.10;;;5.13;;
51987;SDS011;38003;52.012;4.346;2023-08-21T06:50:17;12.38;;;4.95;;
51987;SDS011;38003;52.012;4.346;2023-08-21T06:52:45;15.57;;;5.40;;
51987;SDS011;38003;52.012;4.346;2023-08-21T06:55:14;11.82;;;6.25;;
51987;SDS011;38003;52.012;4.346;2023-08-21T06:57:42;13.25;;;5.40;;
51987;SDS011;38003;52.012;4.346;2023-08-21T07:00:11;8.35;;;5.38;;
51987;SDS011;38003;52.012;4.346;2023-08-21T07:02:39;14.40;;;5.40;;
51987;SDS011;38003;52.012;4.346;2023-08-21T07:05:09;12.23;;;5.43;;
51987;SDS011;38003;52.012;4.346;2023-08-21T07:07:38;13.30;;;5.18;;
51987;SDS011;38003;52.012;4.346;2023-08-21T07:10:06;12.30;;;5.53;;
51987;SDS011;38003;52.012;4.346;2023-08-21T07:12:35;10.23;;;5.18;;
51987;SDS011;38003;52.012;4.346;2023-08-21T07:15:04;15.85;;;5.68;;
51987;SDS011;38003;52.012;4.346;2023-08-21T07:17:32;12.55;;;4.82;;
51987;SDS011;38003;52.012;4.346;2023-08-21T07:20:01;14.27;;;5.15;;
51987;SDS011;38003;52.012;4.346;2023-08-21T07:22:31;17.17;;;5.82;;
51987;SDS011;38003;52.012;4.346;2023-08-21T07:24:59;14.45;;;5.28;;
51987;SDS011;38003;52.012;4.346;2023-08-21T07:27:30;11.60;;;3.45;;
51987;SDS011;38003;52.012;4.346;2023-08-21T07:29:58;10.50;;;3.13;;
51987;SDS011;38003;52.012;4.346;2023-08-21T07:32:27;8.13;;;3.80;;
51987;SDS011;38003;52.012;4.346;2023-08-21T07:34:55;13.60;;;4.18;;
51987;SDS011;38003;52.012;4.346;2023-08-21T07:37:23;9.20;;;3.92;;
51987;SDS011;38003;52.012;4.346;2023-08-21T07:39:53;11.93;;;3.97;;
51987;SDS011;38003;52.012;4.346;2023-08-21T07:42:23;9.60;;;2.80;;
51987;SDS011;38003;52.012;4.346;2023-08-21T07:44:52;15.27;;;3.50;;
51987;SDS011;38003;52.012;4.346;2023-08-21T07:47:20;10.20;;;3.42;;
51987;SDS011;38003;52.012;4.346;2023-08-21T07:49:48;14.82;;;3.58;;
51987;SDS011;38003;52.012;4.346;2023-08-21T07:52:16;11.07;;;3.33;;
51987;SDS011;38003;52.012;4.346;2023-08-21T07:54:45;8.35;;;3.13;;
51987;SDS011;38003;52.012;4.346;2023-08-21T07:57:14;13.85;;;3.20;;
51987;SDS011;38003;52.012;4.346;2023-08-21T07:59:44;11.90;;;2.75;;
51987;SDS011;38003;52.012;4.346;2023-08-21T08:02:12;10.13;;;2.92;;
51987;SDS011;38003;52.012;4.346;2023-08-21T08:04:41;7.45;;;2.63;;
51987;SDS011;38003;52.012;4.346;2023-08-21T08:07:09;9.55;;;2.65;;
51987;SDS011;38003;52.012;4.346;2023-08-21T08:09:37;8.82;;;2.45;;
51987;SDS011;38003;52.012;4.346;2023-08-21T08:12:06;11.43;;;2.60;;
51987;SDS011;38003;52.012;4.346;2023-08-21T08:14:36;7.30;;;2.33;;
51987;SDS011;38003;52.012;4.346;2023-08-21T08:17:04;7.57;;;2.40;;
51987;SDS011;38003;52.012;4.346;2023-08-21T08:19:33;8.70;;;2.47;;
51987;SDS011;38003;52.012;4.346;2023-08-21T08:22:01;7.68;;;2.47;;
51987;SDS011;38003;52.012;4.346;2023-08-21T08:24:29;9.13;;;2.40;;
51987;SDS011;38003;52.012;4.346;2023-08-21T08:26:57;9.82;;;2.75;;
51987;SDS011;38003;52.012;4.346;2023-08-21T08:29:25;6.68;;;2.00;;
51987;SDS011;38003;52.012;4.346;2023-08-21T08:31:55;7.30;;;2.85;;
51987;SDS011;38003;52.012;4.346;2023-08-21T08:34:23;5.18;;;2.40;;
51987;SDS011;38003;52.012;4.346;2023-08-21T08:36:52;7.00;;;1.88;;
51987;SDS011;38003;52.012;4.346;2023-08-21T08:39:20;5.63;;;1.80;;
51987;SDS011;38003;52.012;4.346;2023-08-21T08:41:50;11.18;;;2.28;;
51987;SDS011;38003;52.012;4.346;2023-08-21T08:44:19;8.00;;;2.10;;
51987;SDS011;38003;52.012;4.346;2023-08-21T08:46:47;5.07;;;1.83;;
51987;SDS011;38003;52.012;4.346;2023-08-21T08:49:17;7.88;;;2.20;;
51987;SDS011;38003;52.012;4.346;2023-08-21T08:51:46;6.03;;;1.83;;
51987;SDS011;38003;52.012;4.346;2023-08-21T08:54:15;5.30;;;1.77;;
51987;SDS011;38003;52.012;4.346;2023-08-21T08:56:44;6.78;;;1.92;;
51987;SDS011;38003;52.012;4.346;2023-08-21T08:59:15;6.82;;;2.35;;
51987;SDS011;38003;52.012;4.346;2023-08-21T09:01:43;7.60;;;2.15;;
51987;SDS011;38003;52.012;4.346;2023-08-21T09:04:11;7.30;;;1.77;;
51987;SDS011;38003;52.012;4.346;2023-08-21T09:06:41;8.48;;;2.03;;
51987;SDS011;38003;52.012;4.346;2023-08-21T09:09:09;6.28;;;1.63;;
51987;SDS011;38003;52.012;4.346;2023-08-21T09:11:42;6.55;;;1.85;;
51987;SDS011;38003;52.012;4.346;2023-08-21T09:14:10;5.75;;;1.80;;
51987;SDS011;38003;52.012;4.346;2023-08-21T09:16:57;6.68;;;1.67;;
51987;SDS011;38003;52.012;4.346;2023-08-21T09:19:26;5.93;;;1.73;;
51987;SDS011;38003;52.012;4.346;2023-08-21T09:21:56;4.18;;;1.60;;
51987;SDS011;38003;52.012;4.346;2023-08-21T09:24:24;5.90;;;1.77;;
51987;SDS011;38003;52.012;4.346;2023-08-21T09:26:52;4.90;;;2.00;;
51987;SDS011;38003;52.012;4.346;2023-08-21T09:29:20;5.72;;;1.90;;
51987;SDS011;38003;52.012;4.346;2023-08-21T09:31:49;5.05;;;2.00;;
51987;SDS011;38003;52.012;4.346;2023-08-21T09:34:17;4.85;;;1.67;;
51987;SDS011;38003;52.012;4.346;2023-08-21T09:36:49;6.93;;;1.70;;
51987;SDS011;38003;52.012;4.346;2023-08-21T09:39:23;6.32;;;1.73;;
51987;SDS011;38003;52.012;4.346;2023-08-21T09:41:54;8.18;;;1.45;;
51987;SDS011;38003;52.012;4.346;2023-08-21T09:44:23;5.13;;;1.73;;
51987;SDS011;38003;52.012;4.346;2023-08-21T09:46:51;4.25;;;1.48;;
51987;SDS011;38003;52.012;4.346;2023-08-21T09:49:20;4.72;;;1.73;;
51987;SDS011;38003;52.012;4.346;2023-08-21T09:51:49;4.40;;;1.85;;
51987;SDS011;38003;52.012;4.346;2023-08-21T09:54:17;7.00;;;1.65;;
51987;SDS011;38003;52.012;4.346;2023-08-21T09:56:47;4.78;;;1.60;;
51987;SDS011;38003;52.012;4.346;2023-08-21T09:59:16;6.35;;;1.35;;
51987;SDS011;38003;52.012;4.346;2023-08-21T10:01:45;5.18;;;1.70;;
51987;SDS011;38003;52.012;4.346;2023-08-21T10:04:14;5.30;;;1.90;;
51987;SDS011;38003;52.012;4.346;2023-08-21T10:06:44;6.25;;;1.73;;
51987;SDS011;38003;52.012;4.346;2023-08-21T10:09:12;4.10;;;1.27;;
51987;SDS011;38003;52.012;4.346;2023-08-21T10:11:42;4.15;;;1.33;;
51987;SDS011;38003;52.012;4.346;2023-08-21T10:14:12;6.78;;;1.38;;
51987;SDS011;38003;52.012;4.346;2023-08-21T10:16:40;3.90;;;1.38;;
51987;SDS011;38003;52.012;4.346;2023-08-21T10:19:13;4.13;;;1.55;;
51987;SDS011;38003;52.012;4.346;2023-08-21T10:21:42;5.80;;;1.23;;
51987;SDS011;38003;52.012;4.346;2023-08-21T10:24:10;3.42;;;1.23;;
51987;SDS011;38003;52.012;4.346;2023-08-21T10:26:38;3.92;;;1.15;;
51987;SDS011;38003;52.012;4.346;2023-08-21T10:29:07;3.63;;;1.40;;
51987;SDS011;38003;52.012;4.346;2023-08-21T10:31:37;6.57;;;1.40;;
51987;SDS011;38003;52.012;4.346;2023-08-21T10:34:07;7.03;;;1.50;;
51987;SDS011;38003;52.012;4.346;2023-08-21T10:36:39;4.28;;;1.35;;
51987;SDS011;38003;52.012;4.346;2023-08-21T10:39:12;4.03;;;1.40;;
51987;SDS011;38003;52.012;4.346;2023-08-21T10:41:40;4.68;;;1.30;;
51987;SDS011;38003;52.012;4.346;2023-08-21T10:44:09;6.93;;;1.40;;
51987;SDS011;38003;52.012;4.346;2023-08-21T10:46:51;3.35;;;1.40;;
51987;SDS011;38003;52.012;4.346;2023-08-21T10:49:19;4.60;;;1.20;;
51987;SDS011;38003;52.012;4.346;2023-08-21T10:51:49;3.55;;;1.20;;
51987;SDS011;38003;52.012;4.346;2023-08-21T10:54:17;4.50;;;1.50;;
51987;SDS011;38003;52.012;4.346;2023-08-21T10:56:45;4.15;;;1.42;;
51987;SDS011;38003;52.012;4.346;2023-08-21T10:59:14;5.93;;;1.67;;
51987;SDS011;38003;52.012;4.346;2023-08-21T11:01:42;3.97;;;1.25;;
51987;SDS011;38003;52.012;4.346;2023-08-21T11:04:12;7.13;;;1.30;;
51987;SDS011;38003;52.012;4.346;2023-08-21T11:06:41;3.22;;;1.20;;
51987;SDS011;38003;52.012;4.346;2023-08-21T11:09:12;6.05;;;1.60;;
51987;SDS011;38003;52.012;4.346;2023-08-21T11:11:40;3.45;;;1.15;;
51987;SDS011;38003;52.012;4.346;2023-08-21T11:14:11;3.70;;;1.00;;
51987;SDS011;38003;52.012;4.346;2023-08-21T11:16:39;4.63;;;1.27;;
51987;SDS011;38003;52.012;4.346;2023-08-21T11:19:08;6.18;;;1.27;;
51987;SDS011;38003;52.012;4.346;2023-08-21T11:21:37;2.80;;;1.10;;
51987;SDS011;38003;52.012;4.346;2023-08-21T11:24:06;3.50;;;1.00;;
51987;SDS011;38003;52.012;4.346;2023-08-21T11:26:34;5.07;;;1.25;;
51987;SDS011;38003;52.012;4.346;2023-08-21T11:29:02;3.38;;;1.45;;
51987;SDS011;38003;52.012;4.346;2023-08-21T11:31:30;5.45;;;1.85;;
51987;SDS011;38003;52.012;4.346;2023-08-21T11:33:58;4.13;;;1.30;;
51987;SDS011;38003;52.012;4.346;2023-08-21T11:36:44;4.32;;;1.10;;
51987;SDS011;38003;52.012;4.346;2023-08-21T11:39:13;5.40;;;1.25;;
51987;SDS011;38003;52.012;4.346;2023-08-21T11:41:54;4.95;;;1.02;;
51987;SDS011;38003;52.012;4.346;2023-08-21T11:44:22;4.07;;;1.50;;
51987;SDS011;38003;52.012;4.346;2023-08-21T11:46:50;2.72;;;1.10;;
51987;SDS011;38003;52.012;4.346;2023-08-21T11:49:19;9.07;;;1.42;;
51987;SDS011;38003;52.012;4.346;2023-08-21T11:51:50;4.05;;;1.35;;
51987;SDS011;38003;52.012;4.346;2023-08-21T11:54:18;3.80;;;1.83;;
51987;SDS011;38003;52.012;4.346;2023-08-21T11:56:47;3.20;;;1.10;;
51987;SDS011;38003;52.012;4.346;2023-08-21T11:59:21;3.38;;;1.08;;
51987;SDS011;38003;52.012;4.346;2023-08-21T12:01:49;4.18;;;1.77;;
51987;SDS011;38003;52.012;4.346;2023-08-21T12:04:18;3.85;;;1.15;;
51987;SDS011;38003;52.012;4.346;2023-08-21T12:06:47;3.72;;;1.10;;
51987;SDS011;38003;52.012;4.346;2023-08-21T12:09:16;4.38;;;1.80;;
51987;SDS011;38003;52.012;4.346;2023-08-21T12:11:45;5.35;;;1.15;;
51987;SDS011;38003;52.012;4.346;2023-08-21T12:14:13;4.07;;;1.20;;
51987;SDS011;38003;52.012;4.346;2023-08-21T12:16:43;5.35;;;1.30;;
51987;SDS011;38003;52.012;4.346;2023-08-21T12:19:11;2.63;;;0.95;;
51987;SDS011;38003;52.012;4.346;2023-08-21T12:21:40;5.53;;;1.50;;
51987;SDS011;38003;52.012;4.346;2023-08-21T12:24:08;4.57;;;1.33;;
51987;SDS011;38003;52.012;4.346;2023-08-21T12:26:38;5.15;;;1.30;;
51987;SDS011;38003;52.012;4.346;2023-08-21T12:29:16;3.35;;;1.40;;
51987;SDS011;38003;52.012;4.346;2023-08-21T12:31:44;2.63;;;1.10;;
51987;SDS011;38003;52.012;4.346;2023-08-21T12:34:13;6.88;;;1.42;;
51987;SDS011;38003;52.012;4.346;2023-08-21T12:36:41;4.43;;;1.35;;
51987;SDS011;38003;52.012;4.346;2023-08-21T12:39:09;4.75;;;1.20;;
51987;SDS011;38003;52.012;4.346;2023-08-21T12:41:39;3.47;;;1.20;;
51987;SDS011;38003;52.012;4.346;2023-08-21T12:44:07;4.53;;;1.23;;
51987;SDS011;38003;52.012;4.346;2023-08-21T12:46:35;4.15;;;1.20;;
51987;SDS011;38003;52.012;4.346;2023-08-21T12:49:04;5.75;;;1.27;;
51987;SDS011;38003;52.012;4.346;2023-08-21T12:51:32;4.10;;;1.42;;
51987;SDS011;38003;52.012;4.346;2023-08-21T12:54:00;4.85;;;1.45;;
51987;SDS011;38003;52.012;4.346;2023-08-21T12:56:29;2.55;;;1.23;;
51987;SDS011;38003;52.012;4.346;2023-08-21T12:58:59;7.55;;;1.42;;
51987;SDS011;38003;52.012;4.346;2023-08-21T13:01:27;2.83;;;1.20;;
51987;SDS011;38003;52.012;4.346;2023-08-21T13:03:56;7.05;;;1.38;;
51987;SDS011;38003;52.012;4.346;2023-08-21T13:06:24;5.28;;;1.38;;
51987;SDS011;38003;52.012;4.346;2023-08-21T13:08:52;3.42;;;1.33;;
51987;SDS011;38003;52.012;4.346;2023-08-21T13:11:21;4.38;;;1.40;;
51987;SDS011;38003;52.012;4.346;2023-08-21T13:13:49;4.45;;;1.20;;
51987;SDS011;38003;52.012;4.346;2023-08-21T13:16:19;5.93;;;1.20;;
51987;SDS011;38003;52.012;4.346;2023-08-21T13:18:47;4.93;;;1.23;;
51987;SDS011;38003;52.012;4.346;2023-08-21T13:21:16;5.47;;;1.27;;
51987;SDS011;38003;52.012;4.346;2023-08-21T13:23:44;3.58;;;1.30;;
51987;SDS011;38003;52.012;4.346;2023-08-21T13:26:12;6.25;;;1.30;;
51987;SDS011;38003;52.012;4.346;2023-08-21T13:28:40;4.28;;;1.23;;
51987;SDS011;38003;52.012;4.346;2023-08-21T13:31:09;3.03;;;1.20;;
51987;SDS011;38003;52.012;4.346;2023-08-21T13:33:45;3.00;;;1.30;;
51987;SDS011;38003;52.012;4.346;2023-08-21T13:36:17;4.18;;;1.35;;
51987;SDS011;38003;52.012;4.346;2023-08-21T13:38:50;4.20;;;1.20;;
51987;SDS011;38003;52.012;4.346;2023-08-21T13:41:18;3.45;;;1.20;;
51987;SDS011;38003;52.012;4.346;2023-08-21T13:43:46;4.97;;;1.40;;
51987;SDS011;38003;52.012;4.346;2023-08-21T13:46:16;3.08;;;1.23;;
51987;SDS011;38003;52.012;4.346;2023-08-21T13:48:45;3.22;;;1.10;;
51987;SDS011;38003;52.012;4.346;2023-08-21T13:51:14;3.97;;;1.38;;
51987;SDS011;38003;52.012;4.346;2023-08-21T13:53:46;3.00;;;1.10;;
51987;SDS011;38003;52.012;4.346;2023-08-21T13:56:15;5.63;;;1.40;;
51987;SDS011;38003;52.012;4.346;2023-08-21T13:58:43;5.57;;;1.02;;
51987;SDS011;38003;52.012;4.346;2023-08-21T14:01:11;4.75;;;1.20;;
51987;SDS011;38003;52.012;4.346;2023-08-21T14:03:39;5.13;;;1.50;;
51987;SDS011;38003;52.012;4.346;2023-08-21T14:06:09;3.30;;;1.58;;
51987;SDS011;38003;52.012;4.346;2023-08-21T14:08:38;5.03;;;1.42;;
51987;SDS011;38003;52.012;4.346;2023-08-21T14:11:06;2.42;;;1.10;;
51987;SDS011;38003;52.012;4.346;2023-08-21T14:13:34;5.00;;;1.40;;
51987;SDS011;38003;52.012;4.346;2023-08-21T14:16:03;5.38;;;1.60;;
51987;SDS011;38003;52.012;4.346;2023-08-21T14:18:31;4.25;;;1.23;;
51987;SDS011;38003;52.012;4.346;2023-08-21T14:20:59;4.68;;;1.33;;
51987;SDS011;38003;52.012;4.346;2023-08-21T14:23:30;3.00;;;1.15;;
51987;SDS011;38003;52.012;4.346;2023-08-21T14:25:59;4.97;;;1.50;;
51987;SDS011;38003;52.012;4.346;2023-08-21T14:28:28;4.55;;;1.35;;
51987;SDS011;38003;52.012;4.346;2023-08-21T14:30:56;2.83;;;1.20;;
51987;SDS011;38003;52.012;4.346;2023-08-21T14:33:25;3.50;;;1.30;;
51987;SDS011;38003;52.012;4.346;2023-08-21T14:35:54;3.38;;;1.52;;
51987;SDS011;38003;52.012;4.346;2023-08-21T14:38:22;2.80;;;1.50;;
51987;SDS011;38003;52.012;4.346;2023-08-21T14:40:52;4.45;;;1.50;;
51987;SDS011;38003;52.012;4.346;2023-08-21T14:43:21;9.13;;;1.52;;
51987;SDS011;38003;52.012;4.346;2023-08-21T14:45:49;5.47;;;1.50;;
51987;SDS011;38003;52.012;4.346;2023-08-21T14:48:17;4.85;;;1.38;;
51987;SDS011;38003;52.012;4.346;2023-08-21T14:50:47;2.97;;;1.30;;
51987;SDS011;38003;52.012;4.346;2023-08-21T14:53:16;4.10;;;1.27;;
51987;SDS011;38003;52.012;4.346;2023-08-21T14:55:44;5.53;;;1.85;;